Time;durP1;ratioP1;P1;durP2;ratioP2;P2;SDS_P1;SDS_P2;PMS_P1;PMS_P2;Temp;Humidity;BMP_temperature;BMP_pressure;BME280_temperature;BME280_humidity;BME280_pressure;Samples;Min_cycle;Max_cycle;Signal;HPM_P1;HPM_P2
2021/06/24 00:01:03;;;;;;;7.15;4.85;;;13.60;99.90;;;;;;5016926;28;20035;-96
2021/06/24 00:03:32;;;;;;;6.72;4.50;;;13.60;99.90;;;;;;4998634;28;20090;-95
2021/06/24 00:06:01;;;;;;;6.38;4.65;;;13.60;99.90;;;;;;5018018;28;20030;-95
2021/06/24 00:08:27;;;;;;;6.38;4.65;;;13.50;99.90;;;;;;5014887;28;20046;-95
2021/06/24 00:10:55;;;;;;;8.45;4.72;;;13.50;99.90;;;;;;4998786;28;20027;-94
2021/06/24 00:13:27;;;;;;;6.10;5.00;;;13.50;99.90;;;;;;5017141;28;20026;-96
2021/06/24 00:15:53;;;;;;;6.47;5.07;;;13.50;99.90;;;;;;4999458;28;20018;-95
2021/06/24 00:18:20;;;;;;;8.15;4.65;;;13.50;99.90;;;;;;5002898;28;20043;-95
2021/06/24 00:20:50;;;;;;;9.52;5.07;;;13.40;99.90;;;;;;4998253;28;20038;-96
2021/06/24 00:23:17;;;;;;;7.63;4.95;;;13.40;99.90;;;;;;5002437;28;20050;-95
2021/06/24 00:25:43;;;;;;;7.70;4.80;;;13.40;99.90;;;;;;5021169;28;20034;-94
2021/06/24 00:28:14;;;;;;;7.35;4.30;;;13.40;99.90;;;;;;4998914;28;20049;-96
2021/06/24 00:30:40;;;;;;;5.80;4.90;;;13.40;99.90;;;;;;5001526;28;20026;-96
2021/06/24 00:33:06;;;;;;;7.13;4.93;;;13.40;99.90;;;;;;4997852;28;20034;-94
2021/06/24 00:35:32;;;;;;;9.18;4.85;;;13.40;99.90;;;;;;5000951;28;20049;-96
2021/06/24 00:40:41;;;;;;;7.45;5.15;;;13.30;99.90;;;;;;5171676;23;20109;-94
2021/06/24 00:43:09;;;;;;;6.82;4.90;;;13.30;99.90;;;;;;5008788;28;20031;-94
2021/06/24 00:50:47;;;;;;;10.75;5.05;;;13.20;99.90;;;;;;5337401;23;20092;-93
2021/06/24 00:53:14;;;;;;;6.65;4.63;;;13.30;99.90;;;;;;5005419;28;20065;-94
2021/06/24 00:55:44;;;;;;;8.35;4.93;;;13.20;99.90;;;;;;5017770;28;20073;-93
2021/06/24 00:58:13;;;;;;;7.13;5.13;;;13.20;99.90;;;;;;5015618;28;20026;-94
2021/06/24 01:00:41;;;;;;;8.02;4.90;;;13.20;99.90;;;;;;5016346;28;20034;-95
2021/06/24 01:03:08;;;;;;;7.40;5.15;;;13.20;99.90;;;;;;5036019;28;20018;-94
2021/06/24 01:05:36;;;;;;;7.43;4.28;;;13.30;99.90;;;;;;5035197;28;20098;-95
2021/06/24 01:08:04;;;;;;;6.95;4.90;;;13.30;99.90;;;;;;5020962;28;20086;-96
2021/06/24 01:10:30;;;;;;;8.32;5.05;;;13.20;99.90;;;;;;5039853;28;20053;-96
2021/06/24 01:12:56;;;;;;;6.22;4.57;;;13.20;99.90;;;;;;5023072;28;20041;-95
2021/06/24 01:15:24;;;;;;;8.55;5.15;;;13.20;99.90;;;;;;5036867;28;20026;-94
2021/06/24 01:17:57;;;;;;;6.85;4.97;;;13.20;99.90;;;;;;5022457;28;20049;-94
2021/06/24 01:20:34;;;;;;;9.15;4.78;;;13.20;99.90;;;;;;5021207;28;20022;-96
2021/06/24 01:23:01;;;;;;;5.88;4.47;;;13.20;99.90;;;;;;5034145;28;20049;-94
2021/06/24 01:25:27;;;;;;;8.88;5.13;;;13.20;99.90;;;;;;5034071;28;20022;-95
2021/06/24 01:28:06;;;;;;;7.28;4.60;;;13.20;99.90;;;;;;5036922;28;20026;-95
2021/06/24 01:30:42;;;;;;;7.65;5.25;;;13.20;99.90;;;;;;5217104;23;21515;31
2021/06/24 01:33:12;;;;;;;6.80;4.93;;;13.10;99.90;;;;;;4924563;29;20065;-95
2021/06/24 01:35:39;;;;;;;7.68;5.00;;;13.10;99.90;;;;;;4938399;29;20064;-95
2021/06/24 01:42:59;;;;;;;6.45;4.65;;;13.10;99.90;;;;;;4986740;23;20055;-95
2021/06/24 01:45:26;;;;;;;6.10;4.32;;;13.10;99.90;;;;;;4956310;29;20028;-94
2021/06/24 01:47:52;;;;;;;6.10;5.00;;;13.20;99.90;;;;;;4952719;29;20032;-93
2021/06/24 01:50:18;;;;;;;6.55;4.75;;;13.20;99.90;;;;;;4956548;29;20031;-93
2021/06/24 01:52:45;;;;;;;6.78;4.80;;;13.20;99.90;;;;;;4956674;29;20034;-93
2021/06/24 01:55:16;;;;;;;6.60;4.70;;;13.20;99.90;;;;;;4956578;29;20031;-94
2021/06/24 01:57:42;;;;;;;9.07;5.00;;;13.20;99.90;;;;;;4956698;29;20031;-93
2021/06/24 02:00:10;;;;;;;7.22;4.60;;;13.10;99.90;;;;;;4956666;29;20062;-93
2021/06/24 02:02:36;;;;;;;7.07;4.93;;;13.10;99.90;;;;;;4957664;28;20031;-91
2021/06/24 02:05:09;;;;;;;8.30;5.22;;;13.10;99.90;;;;;;4957616;29;20038;-93
2021/06/24 02:07:40;;;;;;;7.75;5.30;;;13.10;99.90;;;;;;4957623;28;20039;-93
2021/06/24 02:10:09;;;;;;;7.43;5.07;;;13.10;99.90;;;;;;4957519;28;20299;-93
2021/06/24 02:12:36;;;;;;;7.63;5.13;;;13.10;99.90;;;;;;4957260;28;20031;-93
2021/06/24 02:15:02;;;;;;;6.47;4.55;;;13.10;99.90;;;;;;4955429;28;20464;-93
2021/06/24 02:17:28;;;;;;;7.95;4.72;;;13.10;99.90;;;;;;4956023;29;20514;-92
2021/06/24 02:19:54;;;;;;;7.47;4.38;;;13.00;99.90;;;;;;4957686;28;20039;-91
2021/06/24 02:22:19;;;;;;;7.53;5.15;;;13.00;99.90;;;;;;4956428;29;20126;-92
2021/06/24 02:24:45;;;;;;;6.97;4.95;;;13.00;99.90;;;;;;4956002;29;20042;-92
2021/06/24 02:27:11;;;;;;;9.15;5.13;;;13.00;99.90;;;;;;4956327;29;20433;-93
2021/06/24 02:29:36;;;;;;;7.85;4.90;;;13.00;99.90;;;;;;4955952;29;20085;-93
2021/06/24 02:32:02;;;;;;;6.95;4.78;;;13.00;99.90;;;;;;4956260;29;20032;-93
2021/06/24 02:34:29;;;;;;;7.63;4.70;;;13.00;99.90;;;;;;4957348;28;20031;-94
2021/06/24 02:36:55;;;;;;;5.05;3.70;;;13.00;99.90;;;;;;4956130;29;20031;-93
2021/06/24 02:39:20;;;;;;;7.32;4.38;;;13.00;99.90;;;;;;4956068;29;20126;-92
2021/06/24 02:41:46;;;;;;;12.00;5.18;;;13.00;99.90;;;;;;4959078;28;20059;-92
2021/06/24 02:44:12;;;;;;;11.63;6.35;;;13.10;99.90;;;;;;4960663;28;20043;-92
2021/06/24 02:46:38;;;;;;;11.95;6.43;;;13.00;99.90;;;;;;4983013;28;20031;-92
2021/06/24 02:49:03;;;;;;;9.18;5.47;;;13.10;99.90;;;;;;4996129;28;20039;-92
2021/06/24 02:51:29;;;;;;;13.18;6.13;;;13.20;99.90;;;;;;4984023;28;20050;-91
2021/06/24 02:53:55;;;;;;;9.40;5.70;;;13.20;99.90;;;;;;4977970;28;20033;-93
2021/06/24 02:56:28;;;;;;;10.68;6.35;;;13.20;99.90;;;;;;4964281;28;20030;-92
2021/06/24 02:58:55;;;;;;;8.82;5.25;;;13.20;99.90;;;;;;4983333;28;20066;-93
2021/06/24 03:01:21;;;;;;;8.63;5.60;;;13.20;99.90;;;;;;4981798;28;20031;-92
2021/06/24 03:03:49;;;;;;;7.57;5.20;;;13.20;99.90;;;;;;4965711;28;20435;-92
2021/06/24 03:06:15;;;;;;;10.02;6.72;;;13.20;99.90;;;;;;4983064;28;20146;-93
2021/06/24 03:08:41;;;;;;;9.75;6.45;;;13.30;99.90;;;;;;4984703;28;20034;-91
2021/06/24 03:11:08;;;;;;;12.25;6.57;;;13.30;99.90;;;;;;4986997;28;20050;-93
2021/06/24 03:13:34;;;;;;;11.10;6.43;;;13.30;99.90;;;;;;4981217;28;20042;-94
2021/06/24 03:16:00;;;;;;;11.25;6.22;;;13.30;99.90;;;;;;4965189;28;20127;-93
2021/06/24 03:18:26;;;;;;;12.00;6.70;;;13.40;99.90;;;;;;4981599;28;20057;-94
2021/06/24 03:20:59;;;;;;;13.35;6.90;;;13.40;99.90;;;;;;4963222;28;20027;-93
2021/06/24 03:23:26;;;;;;;10.98;5.93;;;13.40;99.90;;;;;;4962730;28;20023;-93
2021/06/24 03:25:53;;;;;;;13.60;7.00;;;13.40;99.90;;;;;;4979302;28;20039;-94
2021/06/24 03:28:20;;;;;;;11.20;6.25;;;13.40;99.90;;;;;;4980551;28;20035;-94
2021/06/24 03:30:46;;;;;;;10.65;5.97;;;13.50;99.90;;;;;;4953131;28;20035;-94
2021/06/24 03:33:12;;;;;;;12.05;6.05;;;13.50;99.90;;;;;;4983934;28;20035;-94
2021/06/24 03:35:38;;;;;;;5.70;3.90;;;13.50;99.90;;;;;;4983010;28;20026;-93
2021/06/24 03:38:04;;;;;;;11.00;6.22;;;13.60;99.90;;;;;;4964181;28;20019;-93
2021/06/24 03:40:31;;;;;;;13.63;6.13;;;13.60;99.90;;;;;;4979508;28;20381;-93
2021/06/24 03:42:58;;;;;;;9.52;5.30;;;13.60;99.90;;;;;;4962220;28;20054;-92
2021/06/24 03:45:24;;;;;;;8.57;4.70;;;13.50;99.90;;;;;;4947162;28;20531;-93
2021/06/24 03:47:51;;;;;;;9.80;5.32;;;13.60;99.90;;;;;;4978949;28;20041;-93
2021/06/24 03:50:18;;;;;;;9.90;5.55;;;13.60;99.90;;;;;;4978778;28;20035;-92
2021/06/24 03:52:46;;;;;;;11.13;5.95;;;13.50;99.90;;;;;;4945593;28;20507;-93
2021/06/24 03:55:16;;;;;;;7.70;4.53;;;13.60;99.90;;;;;;4961420;28;20507;-93
2021/06/24 03:57:45;;;;;;;9.05;5.20;;;13.50;99.90;;;;;;4979090;28;20027;-92
2021/06/24 04:00:11;;;;;;;9.25;5.15;;;13.60;99.90;;;;;;4978325;28;20504;-91
2021/06/24 04:02:38;;;;;;;11.57;5.70;;;13.60;99.90;;;;;;4978598;28;20477;-93
2021/06/24 04:05:05;;;;;;;8.65;4.78;;;13.60;99.90;;;;;;4945314;28;20035;-93
2021/06/24 04:07:34;;;;;;;9.60;4.95;;;13.70;99.90;;;;;;4960156;28;20157;-92
2021/06/24 04:10:03;;;;;;;7.38;3.80;;;13.70;99.90;;;;;;4977607;28;20039;-93
2021/06/24 04:12:29;;;;;;;8.25;4.45;;;13.70;99.90;;;;;;4960429;28;20103;-93
2021/06/24 04:14:57;;;;;;;7.22;4.38;;;13.70;99.90;;;;;;4961156;28;20031;-92
2021/06/24 04:17:22;;;;;;;7.25;4.10;;;13.70;99.90;;;;;;4976761;28;20049;-93
2021/06/24 04:19:49;;;;;;;6.40;3.60;;;13.70;99.90;;;;;;4977350;28;20113;-93
2021/06/24 04:22:17;;;;;;;6.28;3.85;;;13.70;99.90;;;;;;4977472;28;20027;-94
2021/06/24 04:24:43;;;;;;;6.40;3.65;;;13.70;99.90;;;;;;4977834;28;20440;-93
2021/06/24 04:27:10;;;;;;;6.57;3.70;;;13.70;99.90;;;;;;4961434;28;20503;-94
2021/06/24 04:29:36;;;;;;;5.43;3.53;;;13.70;99.90;;;;;;4967904;28;20023;-93
2021/06/24 04:32:03;;;;;;;8.68;5.03;;;13.70;99.90;;;;;;4996752;28;20057;-93
2021/06/24 04:34:29;;;;;;;9.00;4.90;;;13.70;99.90;;;;;;4976244;28;20035;-94
2021/06/24 04:36:55;;;;;;;7.28;4.18;;;13.80;99.90;;;;;;4958829;28;20456;-96
2021/06/24 04:39:21;;;;;;;8.45;5.00;;;13.80;99.90;;;;;;4978767;28;20054;-93
2021/06/24 04:41:47;;;;;;;7.00;4.28;;;13.80;99.90;;;;;;4962366;28;20365;-93
2021/06/24 04:44:13;;;;;;;3.70;2.75;;;13.80;99.90;;;;;;4963173;28;20054;-93
2021/06/24 04:46:38;;;;;;;7.82;4.45;;;13.80;99.90;;;;;;4962812;28;20035;-93
2021/06/24 04:49:04;;;;;;;6.90;4.05;;;13.80;99.90;;;;;;4961162;28;20042;-95
2021/06/24 04:51:30;;;;;;;7.10;3.97;;;13.80;99.90;;;;;;4977980;28;20443;-93
2021/06/24 04:53:56;;;;;;;6.00;3.83;;;13.90;99.90;;;;;;4961285;28;20038;-96
2021/06/24 04:56:21;;;;;;;5.82;3.00;;;13.90;99.90;;;;;;4961016;28;20069;-93
2021/06/24 04:58:47;;;;;;;5.85;3.65;;;13.90;99.90;;;;;;4961771;28;20027;-96
2021/06/24 05:01:13;;;;;;;7.90;3.90;;;14.00;99.90;;;;;;4960476;28;20038;-94
2021/06/24 05:03:39;;;;;;;6.35;3.50;;;14.00;99.90;;;;;;4980425;28;20416;-94
2021/06/24 05:06:08;;;;;;;4.80;2.92;;;14.00;99.90;;;;;;4961189;28;20022;-94
2021/06/24 05:08:35;;;;;;;6.32;3.40;;;14.10;99.90;;;;;;4960971;28;20065;-94
2021/06/24 05:11:01;;;;;;;6.07;3.40;;;14.10;99.90;;;;;;4977832;28;20075;-94
2021/06/24 05:13:27;;;;;;;5.53;3.20;;;14.10;99.90;;;;;;4960765;28;20058;-94
2021/06/24 05:15:53;;;;;;;5.63;3.38;;;14.10;99.90;;;;;;4960670;28;20038;-94
2021/06/24 05:18:19;;;;;;;5.25;3.35;;;14.20;99.90;;;;;;4960052;28;20118;-94
2021/06/24 05:20:46;;;;;;;6.60;3.83;;;14.20;99.90;;;;;;4977021;28;20042;-95
2021/06/24 05:23:14;;;;;;;6.40;3.25;;;14.20;99.90;;;;;;4977018;28;20019;-94
2021/06/24 05:25:43;;;;;;;7.03;4.25;;;14.30;99.90;;;;;;4960258;28;20515;-96
2021/06/24 05:28:09;;;;;;;7.28;3.28;;;14.30;99.90;;;;;;4976882;28;20041;-96
2021/06/24 05:30:36;;;;;;;5.20;3.42;;;14.30;99.90;;;;;;4960618;28;20023;-94
2021/06/24 05:33:04;;;;;;;6.00;3.20;;;14.30;99.90;;;;;;4977725;28;20035;-94
2021/06/24 05:35:31;;;;;;;6.30;3.30;;;14.40;99.90;;;;;;4977571;28;20023;-95
2021/06/24 05:37:57;;;;;;;7.20;3.65;;;14.40;99.90;;;;;;4960225;28;20126;-95
2021/06/24 05:40:22;;;;;;;5.65;3.50;;;14.40;99.90;;;;;;4959927;28;20037;-94
2021/06/24 05:42:49;;;;;;;6.82;3.65;;;14.50;99.90;;;;;;4977203;28;20051;-93
2021/06/24 05:45:15;;;;;;;4.43;2.80;;;14.50;99.90;;;;;;4976076;28;20030;-93
2021/06/24 05:47:41;;;;;;;4.63;3.13;;;14.50;99.90;;;;;;4952399;28;20078;-93
2021/06/24 05:50:08;;;;;;;4.30;2.60;;;14.50;99.90;;;;;;4975636;28;20027;-93
2021/06/24 05:52:35;;;;;;;5.22;2.90;;;14.60;99.90;;;;;;4960373;28;20082;-95
2021/06/24 05:55:01;;;;;;;4.38;3.05;;;14.60;99.90;;;;;;4960453;28;20019;-94
2021/06/24 06:02:38;;;;;;;5.53;3.22;;;14.80;99.90;;;;;;5198095;23;20043;-96
2021/06/24 06:05:04;;;;;;;5.25;2.65;;;14.80;99.90;;;;;;4998583;28;20037;-96
2021/06/24 06:07:31;;;;;;;3.10;2.15;;;14.90;99.90;;;;;;4995180;28;20125;-95
2021/06/24 06:09:59;;;;;;;4.32;2.65;;;15.00;99.90;;;;;;4996256;28;20027;-96
2021/06/24 06:12:27;;;;;;;4.28;2.38;;;15.00;99.90;;;;;;4979473;28;20018;-95
2021/06/24 06:14:53;;;;;;;4.15;2.60;;;15.10;99.90;;;;;;4981906;28;20015;-95
2021/06/24 06:17:19;;;;;;;3.70;2.30;;;15.10;99.90;;;;;;4982332;28;20022;-95
2021/06/24 06:24:55;;;;;;;3.15;2.08;;;15.20;99.90;;;;;;5074680;23;20065;-96
2021/06/24 06:27:22;;;;;;;3.45;2.30;;;15.20;99.90;;;;;;5414335;23;20050;-96
2021/06/24 06:29:48;;;;;;;3.65;2.22;;;15.20;99.90;;;;;;4982455;28;20062;-96
2021/06/24 06:32:14;;;;;;;2.92;1.92;;;15.30;99.90;;;;;;4996909;28;20030;-95
2021/06/24 06:37:16;;;;;;;3.13;2.10;;;15.30;99.90;;;;;;5228912;23;20062;-95
2021/06/24 06:39:42;;;;;;;4.43;2.33;;;15.30;99.90;;;;;;4964024;28;20015;-96
2021/06/24 06:52:57;;;;;;;4.28;2.47;;;15.60;99.90;;;;;;5289297;23;20064;-96
2021/06/24 06:55:32;;;;;;;3.22;2.35;;;15.60;99.90;;;;;;4999180;28;20046;-95
2021/06/24 06:58:07;;;;;;;4.35;2.05;;;15.70;99.90;;;;;;4965977;28;20058;-96
2021/06/24 07:00:36;;;;;;;3.80;2.15;;;15.70;99.90;;;;;;4981360;28;20034;-94
2021/06/24 07:03:02;;;;;;;4.15;2.10;;;15.80;99.90;;;;;;4995850;28;20030;-96
2021/06/24 07:05:28;;;;;;;4.18;2.33;;;15.70;99.90;;;;;;4980102;28;20019;-95
2021/06/24 07:08:00;;;;;;;4.68;2.22;;;15.70;99.90;;;;;;4981294;28;20047;-96
2021/06/24 07:10:29;;;;;;;4.00;1.92;;;15.70;99.90;;;;;;4962947;28;20022;-96
2021/06/24 07:12:57;;;;;;;3.80;1.80;;;15.80;99.90;;;;;;4980904;28;20038;-96
2021/06/24 07:15:28;;;;;;;2.13;1.40;;;15.80;99.90;;;;;;4997100;28;20033;-96
2021/06/24 07:17:54;;;;;;;2.47;1.30;;;15.80;99.90;;;;;;4981069;28;20038;-95
2021/06/24 07:20:20;;;;;;;2.17;1.77;;;15.80;99.90;;;;;;4976604;28;20027;-95
2021/06/24 07:22:47;;;;;;;1.65;1.50;;;15.80;99.90;;;;;;4974938;28;20058;-95
2021/06/24 07:28:11;;;;;;;2.65;1.13;;;15.80;99.90;;;;;;6061869;23;20013;-95
2021/06/24 07:30:37;;;;;;;3.05;1.40;;;15.80;99.90;;;;;;4952422;29;20110;-95
2021/06/24 07:33:04;;;;;;;3.42;1.20;;;15.70;99.90;;;;;;4950157;29;20032;-95
2021/06/24 07:35:30;;;;;;;1.15;0.90;;;15.70;99.90;;;;;;4973049;29;20042;-94
2021/06/24 07:37:56;;;;;;;2.88;1.17;;;15.60;99.90;;;;;;4969125;28;20023;-96
2021/06/24 07:40:25;;;;;;;7.93;1.40;;;15.60;99.90;;;;;;4965119;28;20027;-94
2021/06/24 07:43:08;;;;;;;2.72;1.35;;;15.60;99.90;;;;;;4973363;29;20062;-94
2021/06/24 07:46:28;;;;;;;1.92;1.20;;;15.50;99.90;;;;;;4955940;29;20095;-96
2021/06/24 07:49:18;;;;;;;3.58;1.30;;;15.50;99.90;;;;;;4976227;29;20090;-95
2021/06/24 07:52:08;;;;;;;;;;;;;;;;;;;;;
2021/06/24 07:54:50;;;;;;;2.67;1.67;;;15.50;99.90;;;;;;4958352;29;20066;-95
2021/06/24 07:57:25;;;;;;;2.60;1.45;;;15.50;99.90;;;;;;4958812;29;20015;-95
2021/06/24 07:59:51;;;;;;;1.33;1.17;;;15.40;99.90;;;;;;4949134;29;20031;-94
2021/06/24 08:02:19;;;;;;;1.30;1.00;;;15.40;99.90;;;;;;4957063;29;20027;-94
2021/06/24 08:04:47;;;;;;;1.45;1.10;;;15.40;99.90;;;;;;4952504;29;20035;-94
2021/06/24 08:07:14;;;;;;;2.08;1.20;;;15.50;99.90;;;;;;4968573;28;20035;-94
2021/06/24 08:09:41;;;;;;;2.47;1.80;;;15.40;99.90;;;;;;4948659;29;20122;-95
2021/06/24 08:12:09;;;;;;;1.58;1.08;;;15.50;99.90;;;;;;4953722;29;20034;-94
2021/06/24 08:14:39;;;;;;;2.70;0.90;;;15.60;99.90;;;;;;4940415;29;20493;-93
2021/06/24 08:17:06;;;;;;;1.50;0.93;;;15.60;99.90;;;;;;4957228;29;20102;-94
2021/06/24 08:19:40;;;;;;;1.85;1.10;;;15.70;99.90;;;;;;4959110;29;20032;-94
2021/06/24 08:22:31;;;;;;;2.33;1.42;;;15.80;99.90;;;;;;4963399;29;20038;-94
2021/06/24 08:25:12;;;;;;;1.67;1.15;;;15.90;99.90;;;;;;4968984;28;20039;-95
2021/06/24 08:27:40;;;;;;;;;;;16.00;99.90;;;;;;4961210;29;20122;-94
2021/06/24 08:30:15;;;;;;;1.00;0.88;;;16.10;99.90;;;;;;4946632;29;19930;-95
2021/06/24 08:32:44;;;;;;;1.10;1.00;;;16.20;99.90;;;;;;4957106;29;20042;-96
2021/06/24 08:35:11;;;;;;;0.73;0.70;;;16.40;99.90;;;;;;4953070;29;20027;-95
2021/06/24 08:37:39;;;;;;;0.50;0.50;;;16.50;99.90;;;;;;4955059;29;20039;-95
2021/06/24 08:40:08;;;;;;;1.25;1.15;;;16.70;99.90;;;;;;4954929;29;20082;-94
2021/06/24 08:42:37;;;;;;;1.10;0.80;;;16.80;99.90;;;;;;4952231;29;20103;-95
2021/06/24 08:45:09;;;;;;;3.03;0.60;;;16.90;99.90;;;;;;4953698;29;20397;-95
2021/06/24 08:47:40;;;;;;;0.80;0.80;;;16.90;99.90;;;;;;4955915;29;20115;-94
2021/06/24 08:50:09;;;;;;;0.98;0.70;;;17.00;99.90;;;;;;4973712;29;20118;-94
2021/06/24 08:52:35;;;;;;;0.90;0.80;;;17.10;99.90;;;;;;4951222;29;20036;-94
2021/06/24 08:55:02;;;;;;;0.82;0.60;;;17.20;99.90;;;;;;4950006;29;20026;-93
2021/06/24 08:57:34;;;;;;;0.60;0.60;;;17.30;99.90;;;;;;4969746;28;20670;-94
2021/06/24 09:00:00;;;;;;;;;;;17.40;99.90;;;;;;4936854;29;20070;-95
2021/06/24 09:02:42;;;;;;;0.52;0.30;;;17.40;99.90;;;;;;4969299;28;19930;-93
2021/06/24 09:05:12;;;;;;;0.60;0.60;;;17.50;99.90;;;;;;4972843;28;20031;-94
2021/06/24 09:08:11;;;;;;;;;;;;;;;;;;;;;
2021/06/24 09:10:41;;;;;;;0.52;0.50;;;17.70;99.90;;;;;;4977875;28;20055;-95
2021/06/24 09:13:08;;;;;;;0.77;0.68;;;17.70;99.90;;;;;;4966023;28;20035;-94
2021/06/24 09:15:40;;;;;;;0.60;0.60;;;17.80;99.90;;;;;;4959284;29;20039;-93
2021/06/24 09:18:22;;;;;;;0.50;0.50;;;17.70;99.90;;;;;;4960128;29;20011;-95
2021/06/24 09:20:49;;;;;;;0.70;0.70;;;17.70;99.90;;;;;;4970559;28;20107;-94
2021/06/24 09:23:15;;;;;;;0.40;0.40;;;17.70;99.90;;;;;;4959618;28;20517;-95
2021/06/24 09:26:14;;;;;;;0.82;0.82;;;17.70;99.90;;;;;;4972883;28;20050;-94
2021/06/24 09:28:57;;;;;;;0.65;0.60;;;17.70;99.90;;;;;;4973711;28;20058;-95
2021/06/24 09:31:37;;;;;;;1.23;0.55;;;17.70;99.90;;;;;;4976487;28;20070;-94
2021/06/24 09:34:13;;;;;;;0.60;0.60;;;17.70;99.90;;;;;;4962655;29;20051;-94
2021/06/24 09:37:05;;;;;;;0.80;0.73;;;17.70;99.90;;;;;;4962370;29;20027;-94
2021/06/24 10:55:30;;;;;;;4.75;4.03;;;19.50;99.90;;;;;;5830405;23;20051;-96
2021/06/24 10:57:57;;;;;;;6.70;3.28;;;19.70;99.90;;;;;;5225632;23;20073;-96
2021/06/24 11:00:47;;;;;;;4.40;3.35;;;19.80;99.90;;;;;;5335982;23;20050;-94
2021/06/24 11:03:32;;;;;;;2.92;2.50;;;20.00;99.90;;;;;;5012223;28;20026;-94
2021/06/24 11:06:24;;;;;;;3.88;2.78;;;20.00;99.90;;;;;;5028283;28;20064;-94
2021/06/24 11:09:18;;;;;;;4.57;3.35;;;20.00;99.90;;;;;;5018192;28;20054;-94
2021/06/24 11:11:45;;;;;;;3.17;2.88;;;19.90;99.90;;;;;;5027802;28;20026;-94
2021/06/24 11:14:16;;;;;;;4.78;2.88;;;19.90;99.90;;;;;;5025964;28;20030;-94
2021/06/24 11:16:47;;;;;;;4.28;2.92;;;19.90;99.90;;;;;;5022184;28;20029;-95
2021/06/24 11:19:16;;;;;;;5.20;4.18;;;19.80;99.90;;;;;;5024831;28;20430;-96
2021/06/24 11:21:41;;;;;;;6.43;4.15;;;19.80;99.90;;;;;;5025547;28;20022;-94
2021/06/24 11:24:07;;;;;;;5.18;4.43;;;19.70;99.90;;;;;;5019877;28;20044;-94
2021/06/24 11:26:35;;;;;;;5.53;4.13;;;19.60;99.90;;;;;;5025796;28;20102;-94
2021/06/24 11:32:12;;;;;;;5.95;4.22;;;19.40;99.90;;;;;;5018824;28;20030;-94
2021/06/24 11:37:16;;;;;;;7.63;4.30;;;19.50;99.90;;;;;;5018793;28;20029;-94
2021/06/24 11:39:54;;;;;;;4.57;3.57;;;19.40;99.90;;;;;;5026160;28;20042;-94
2021/06/24 11:42:39;;;;;;;4.65;3.58;;;19.50;99.90;;;;;;5004551;28;20056;-95
2021/06/24 11:45:09;;;;;;;5.18;3.90;;;19.60;99.90;;;;;;5029210;28;20109;-94
2021/06/24 11:47:37;;;;;;;10.07;4.65;;;19.60;99.90;;;;;;5034246;28;20061;-94
2021/06/24 12:04:04;;;;;;;5.88;4.18;;;20.00;99.90;;;;;;5018867;28;20037;-95
2021/06/24 12:06:57;;;;;;;5.53;4.25;;;19.90;99.90;;;;;;5018355;28;20049;-96
2021/06/24 12:09:43;;;;;;;7.88;4.88;;;19.80;99.90;;;;;;5018005;28;20446;-95
2021/06/24 12:12:13;;;;;;;10.50;6.20;;;19.80;99.90;;;;;;5016811;28;20030;-93
2021/06/24 12:14:46;;;;;;;6.97;5.82;;;19.80;99.90;;;;;;5021375;28;20022;-96
2021/06/24 12:17:28;;;;;;;12.45;5.70;;;19.80;99.90;;;;;;5018025;28;20073;-95
2021/06/24 12:20:09;;;;;;;10.43;6.55;;;19.70;99.90;;;;;;5022496;28;20037;-94
2021/06/24 12:22:41;;;;;;;10.45;5.95;;;19.60;99.90;;;;;;5023877;28;20125;-95
2021/06/24 12:25:21;;;;;;;7.63;5.82;;;19.60;99.90;;;;;;5013921;28;20045;-95
2021/06/24 12:27:53;;;;;;;10.25;6.30;;;19.50;99.90;;;;;;5019804;28;20125;-93
2021/06/24 12:30:23;;;;;;;11.45;6.50;;;19.50;99.90;;;;;;5022431;28;20097;-94
2021/06/24 12:32:49;;;;;;;7.87;6.40;;;19.40;99.90;;;;;;5019728;28;20020;-94
2021/06/24 12:35:21;;;;;;;10.38;7.40;;;19.40;99.90;;;;;;5024389;28;20089;-94
2021/06/24 12:37:49;;;;;;;9.60;7.50;;;19.30;99.90;;;;;;5022804;28;20509;-94
2021/06/24 12:40:17;;;;;;;12.30;7.80;;;19.20;99.90;;;;;;5026219;28;20033;-93
2021/06/24 12:42:55;;;;;;;13.10;7.93;;;19.10;99.90;;;;;;5003521;28;20030;-96
2021/06/24 12:45:29;;;;;;;11.65;7.30;;;19.00;99.90;;;;;;5020837;28;20018;-95
2021/06/24 12:47:56;;;;;;;9.40;7.45;;;18.80;99.90;;;;;;5013416;28;20034;-95
2021/06/24 12:50:25;;;;;;;14.45;7.53;;;18.80;99.90;;;;;;5018257;28;20040;-94
2021/06/24 12:52:53;;;;;;;11.20;7.55;;;18.80;99.90;;;;;;5013715;28;20061;-95
2021/06/24 12:55:37;;;;;;;11.15;7.68;;;18.90;99.90;;;;;;5020982;28;20030;-94
2021/06/24 12:58:17;;;;;;;9.98;6.45;;;18.90;99.90;;;;;;5020749;28;20030;-95
2021/06/24 13:00:55;;;;;;;9.88;5.95;;;19.00;99.90;;;;;;5020905;28;20050;-93
2021/06/24 13:03:51;;;;;;;8.93;6.00;;;19.10;99.90;;;;;;5016648;28;20033;-94
2021/06/24 13:06:19;;;;;;;6.13;4.90;;;19.10;99.90;;;;;;5018275;28;20014;-95
2021/06/24 13:09:14;;;;;;;9.55;6.10;;;19.00;99.90;;;;;;5006709;28;20483;-93
2021/06/24 13:11:54;;;;;;;11.25;6.13;;;19.00;99.90;;;;;;5022070;28;20026;-96
2021/06/24 13:14:23;;;;;;;8.60;5.22;;;19.10;99.90;;;;;;5016804;28;20034;-95
2021/06/24 13:16:52;;;;;;;12.88;5.68;;;19.20;99.90;;;;;;5014327;28;20429;-95
2021/06/24 13:19:36;;;;;;;8.15;5.30;;;19.30;99.90;;;;;;5020184;28;20455;-94
2021/06/24 13:22:10;;;;;;;8.27;5.68;;;19.30;99.90;;;;;;5018540;28;20144;-94
2021/06/24 13:24:39;;;;;;;8.68;5.32;;;19.50;99.90;;;;;;5017355;28;20097;-94
2021/06/24 13:27:07;;;;;;;7.70;5.78;;;19.60;99.90;;;;;;5012096;28;20467;-94
2021/06/24 13:29:33;;;;;;;7.70;6.05;;;19.60;99.90;;;;;;5018510;28;20030;-94
2021/06/24 13:32:02;;;;;;;8.05;5.70;;;19.60;99.90;;;;;;5014346;28;20128;-95
2021/06/24 13:34:29;;;;;;;6.97;5.68;;;19.50;99.90;;;;;;5018659;28;20088;-93
2021/06/24 13:37:17;;;;;;;7.55;5.25;;;19.60;99.90;;;;;;5015559;28;20021;-93
2021/06/24 13:39:48;;;;;;;7.65;4.82;;;19.70;99.90;;;;;;5011238;28;20030;-95
2021/06/24 13:42:15;;;;;;;9.40;5.22;;;19.70;99.90;;;;;;5023053;28;20018;-93
2021/06/24 13:44:41;;;;;;;9.80;4.88;;;19.80;99.90;;;;;;5024731;28;20098;-96
2021/06/24 13:47:07;;;;;;;10.75;5.22;;;19.70;99.90;;;;;;5017119;28;20061;-95
2021/06/24 13:49:33;;;;;;;9.13;6.13;;;19.70;99.90;;;;;;5021092;28;20566;-93
2021/06/24 13:51:59;;;;;;;11.32;5.85;;;19.60;99.90;;;;;;5015004;28;20045;-95
2021/06/24 13:54:32;;;;;;;9.05;5.63;;;19.60;99.90;;;;;;5021410;28;20060;-94
2021/06/24 13:57:11;;;;;;;6.97;5.45;;;19.60;99.90;;;;;;5014878;28;20029;-93
2021/06/24 13:59:43;;;;;;;11.65;5.75;;;19.60;99.90;;;;;;5022197;28;20038;-95
2021/06/24 14:02:10;;;;;;;10.70;5.68;;;19.50;99.90;;;;;;4998347;28;20050;-95
2021/06/24 14:04:36;;;;;;;7.25;6.03;;;19.50;99.90;;;;;;5018605;28;20038;-96
2021/06/24 14:07:03;;;;;;;10.40;5.93;;;19.60;99.90;;;;;;5020181;28;20037;-93
2021/06/24 14:09:29;;;;;;;7.55;5.82;;;19.60;99.90;;;;;;5000656;28;20034;-95
2021/06/24 14:11:55;;;;;;;9.23;5.82;;;19.70;99.90;;;;;;5013825;28;20065;-93
2021/06/24 14:14:21;;;;;;;9.07;5.63;;;19.60;99.90;;;;;;5018590;28;20048;-93
2021/06/24 14:16:47;;;;;;;9.88;5.95;;;19.60;99.90;;;;;;5013523;28;20021;-94
2021/06/24 14:19:13;;;;;;;10.77;5.40;;;19.60;99.90;;;;;;5019102;28;20513;-94
2021/06/24 14:21:39;;;;;;;8.75;6.20;;;19.60;99.90;;;;;;5019111;28;20022;-94
2021/06/24 14:24:06;;;;;;;9.35;5.80;;;19.60;99.90;;;;;;5014858;28;20024;-94
2021/06/24 14:26:34;;;;;;;9.65;5.47;;;19.50;99.90;;;;;;4987077;28;20026;-95
2021/06/24 14:29:01;;;;;;;7.93;5.65;;;19.50;99.90;;;;;;5011358;28;20045;-94
2021/06/24 14:31:27;;;;;;;8.00;5.97;;;19.50;99.90;;;;;;5017230;28;20042;-95
2021/06/24 14:33:53;;;;;;;11.30;6.15;;;19.40;99.90;;;;;;5011340;28;20025;-93
2021/06/24 14:36:20;;;;;;;9.23;5.63;;;19.40;99.90;;;;;;5019164;28;20033;-94
2021/06/24 14:38:45;;;;;;;9.10;6.47;;;19.40;99.90;;;;;;5018028;28;20057;-93
2021/06/24 14:41:12;;;;;;;11.95;7.65;;;19.40;99.90;;;;;;5014014;28;20029;-94
2021/06/24 14:43:41;;;;;;;12.65;7.30;;;19.30;99.90;;;;;;5015235;28;20026;-95
2021/06/24 14:46:08;;;;;;;15.75;7.90;;;19.20;99.90;;;;;;5011211;28;20022;-94
2021/06/24 14:48:41;;;;;;;10.88;8.23;;;19.10;99.90;;;;;;5015027;28;20095;-93
2021/06/24 14:51:09;;;;;;;10.38;7.63;;;19.10;99.90;;;;;;5010907;28;20105;-93
2021/06/24 14:53:35;;;;;;;9.10;6.72;;;19.20;99.90;;;;;;5014086;28;20041;-93
2021/06/24 14:56:01;;;;;;;11.57;7.45;;;19.30;99.90;;;;;;5008641;28;20129;-93
2021/06/24 14:58:27;;;;;;;10.38;7.28;;;19.40;99.90;;;;;;5013951;28;20021;-94
2021/06/24 15:00:55;;;;;;;14.02;7.63;;;19.40;99.90;;;;;;5006256;28;20498;-95
2021/06/24 15:03:22;;;;;;;10.00;6.90;;;19.40;99.90;;;;;;5015174;28;20506;-95
2021/06/24 15:05:51;;;;;;;10.98;7.50;;;19.40;99.90;;;;;;5007620;28;20044;-94
2021/06/24 15:08:18;;;;;;;11.57;6.57;;;19.40;99.90;;;;;;5016421;28;20034;-96
2021/06/24 15:10:46;;;;;;;10.82;7.25;;;19.50;99.90;;;;;;5016877;28;20026;-93
2021/06/24 15:13:12;;;;;;;10.25;6.57;;;19.40;99.90;;;;;;4997615;28;20062;-94
2021/06/24 15:15:39;;;;;;;8.82;6.20;;;19.50;99.90;;;;;;5013177;28;20026;-95